sensor_id;sensor_type;location;lat;lon;timestamp;temperature;humidity
38973;DHT22;25333;50.762;4.470;2023-04-03T00:01:28;2.50;99.90
38973;DHT22;25333;50.762;4.470;2023-04-03T00:03:54;2.50;99.90
38973;DHT22;25333;50.762;4.470;2023-04-03T00:06:20;2.40;99.90
38973;DHT22;25333;50.762;4.470;2023-04-03T00:08:46;2.30;99.90
38973;DHT22;25333;50.762;4.470;2023-04-03T00:11:11;2.20;99.90
38973;DHT22;25333;50.762;4.470;2023-04-03T00:13:37;2.30;99.90
38973;DHT22;25333;50.762;4.470;2023-04-03T00:16:03;2.30;99.90
38973;DHT22;25333;50.762;4.470;2023-04-03T00:18:29;2.20;99.90
38973;DHT22;25333;50.762;4.470;2023-04-03T00:20:55;2.20;99.90
38973;DHT22;25333;50.762;4.470;2023-04-03T00:23:21;2.30;99.90
38973;DHT22;25333;50.762;4.470;2023-04-03T00:25:49;2.40;99.90
38973;DHT22;25333;50.762;4.470;2023-04-03T00:28:15;2.30;99.90
38973;DHT22;25333;50.762;4.470;2023-04-03T00:30:40;2.10;99.90
38973;DHT22;25333;50.762;4.470;2023-04-03T00:33:06;2.10;99.90
38973;DHT22;25333;50.762;4.470;2023-04-03T00:35:34;2.10;99.90
38973;DHT22;25333;50.762;4.470;2023-04-03T00:37:59;2.00;99.90
38973;DHT22;25333;50.762;4.470;2023-04-03T00:40:27;2.00;99.90
38973;DHT22;25333;50.762;4.470;2023-04-03T00:42:57;2.00;99.90
38973;DHT22;25333;50.762;4.470;2023-04-03T00:47:54;2.10;99.90
38973;DHT22;25333;50.762;4.470;2023-04-03T00:50:21;2.10;99.90
38973;DHT22;25333;50.762;4.470;2023-04-03T00:52:47;2.10;99.90
38973;DHT22;25333;50.762;4.470;2023-04-03T00:55:15;2.10;99.90
38973;DHT22;25333;50.762;4.470;2023-04-03T00:57:41;2.10;99.90
38973;DHT22;25333;50.762;4.470;2023-04-03T01:00:13;2.10;99.90
38973;DHT22;25333;50.762;4.470;2023-04-03T01:02:39;2.10;99.90
38973;DHT22;25333;50.762;4.470;2023-04-03T01:05:06;2.10;99.90
38973;DHT22;25333;50.762;4.470;2023-04-03T01:07:32;2.10;99.90
38973;DHT22;25333;50.762;4.470;2023-04-03T01:10:04;2.10;99.90
38973;DHT22;25333;50.762;4.470;2023-04-03T01:12:37;2.00;99.90
38973;DHT22;25333;50.762;4.470;2023-04-03T01:15:13;2.00;99.90
38973;DHT22;25333;50.762;4.470;2023-04-03T01:17:48;2.00;99.90
38973;DHT22;25333;50.762;4.470;2023-04-03T01:25:47;2.00;99.90
38973;DHT22;25333;50.762;4.470;2023-04-03T01:28:17;2.00;99.90
38973;DHT22;25333;50.762;4.470;2023-04-03T01:33:17;2.10;99.90
38973;DHT22;25333;50.762;4.470;2023-04-03T01:35:42;2.00;99.90
38973;DHT22;25333;50.762;4.470;2023-04-03T01:38:08;1.90;99.90
38973;DHT22;25333;50.762;4.470;2023-04-03T01:40:34;2.00;99.90
38973;DHT22;25333;50.762;4.470;2023-04-03T01:42:59;1.90;99.90
38973;DHT22;25333;50.762;4.470;2023-04-03T01:45:25;1.90;99.90
38973;DHT22;25333;50.762;4.470;2023-04-03T01:47:51;2.00;99.90
38973;DHT22;25333;50.762;4.470;2023-04-03T01:50:16;2.00;99.90
38973;DHT22;25333;50.762;4.470;2023-04-03T01:52:42;2.00;99.90
38973;DHT22;25333;50.762;4.470;2023-04-03T01:55:08;2.00;99.90
38973;DHT22;25333;50.762;4.470;2023-04-03T01:57:34;2.00;99.90
38973;DHT22;25333;50.762;4.470;2023-04-03T01:59:59;2.00;99.90
38973;DHT22;25333;50.762;4.470;2023-04-03T02:02:25;1.80;99.90
38973;DHT22;25333;50.762;4.470;2023-04-03T02:04:50;1.80;99.90
38973;DHT22;25333;50.762;4.470;2023-04-03T02:07:16;1.80;99.90
38973;DHT22;25333;50.762;4.470;2023-04-03T02:09:42;1.90;99.90
38973;DHT22;25333;50.762;4.470;2023-04-03T02:12:07;1.90;99.90
38973;DHT22;25333;50.762;4.470;2023-04-03T02:14:33;1.80;99.90
38973;DHT22;25333;50.762;4.470;2023-04-03T02:17:00;1.90;99.90
38973;DHT22;25333;50.762;4.470;2023-04-03T02:19:30;1.90;99.90
38973;DHT22;25333;50.762;4.470;2023-04-03T02:21:56;1.80;99.90
38973;DHT22;25333;50.762;4.470;2023-04-03T02:24:22;1.80;99.90
38973;DHT22;25333;50.762;4.470;2023-04-03T02:26:47;1.80;99.90
38973;DHT22;25333;50.762;4.470;2023-04-03T02:29:13;1.90;99.90
38973;DHT22;25333;50.762;4.470;2023-04-03T02:31:39;1.80;99.90
38973;DHT22;25333;50.762;4.470;2023-04-03T02:34:04;1.80;99.90
38973;DHT22;25333;50.762;4.470;2023-04-03T02:36:30;1.80;99.90
38973;DHT22;25333;50.762;4.470;2023-04-03T02:38:56;1.80;99.90
38973;DHT22;25333;50.762;4.470;2023-04-03T02:41:22;1.80;99.90
38973;DHT22;25333;50.762;4.470;2023-04-03T02:43:47;1.90;99.90
38973;DHT22;25333;50.762;4.470;2023-04-03T02:46:13;1.90;99.90
38973;DHT22;25333;50.762;4.470;2023-04-03T02:48:40;1.90;99.90
38973;DHT22;25333;50.762;4.470;2023-04-03T02:51:06;2.00;99.90
38973;DHT22;25333;50.762;4.470;2023-04-03T02:53:32;1.90;99.90
38973;DHT22;25333;50.762;4.470;2023-04-03T02:55:58;1.80;99.90
38973;DHT22;25333;50.762;4.470;2023-04-03T02:58:23;1.80;99.90
38973;DHT22;25333;50.762;4.470;2023-04-03T03:00:49;1.70;99.90
38973;DHT22;25333;50.762;4.470;2023-04-03T03:03:15;1.60;99.90
38973;DHT22;25333;50.762;4.470;2023-04-03T03:05:40;1.70;99.90
38973;DHT22;25333;50.762;4.470;2023-04-03T03:08:06;1.80;99.90
38973;DHT22;25333;50.762;4.470;2023-04-03T03:10:31;1.80;99.90
38973;DHT22;25333;50.762;4.470;2023-04-03T03:12:57;1.80;99.90
38973;DHT22;25333;50.762;4.470;2023-04-03T03:15:22;1.80;99.90
38973;DHT22;25333;50.762;4.470;2023-04-03T03:17:48;1.80;99.90
38973;DHT22;25333;50.762;4.470;2023-04-03T03:20:14;1.90;99.90
38973;DHT22;25333;50.762;4.470;2023-04-03T03:22:40;1.80;99.90
38973;DHT22;25333;50.762;4.470;2023-04-03T03:25:06;1.70;99.90
38973;DHT22;25333;50.762;4.470;2023-04-03T03:27:32;1.80;99.90
38973;DHT22;25333;50.762;4.470;2023-04-03T03:29:58;1.90;99.90
38973;DHT22;25333;50.762;4.470;2023-04-03T03:32:24;1.90;99.90
38973;DHT22;25333;50.762;4.470;2023-04-03T03:34:49;1.90;99.90
38973;DHT22;25333;50.762;4.470;2023-04-03T03:37:15;1.90;99.90
38973;DHT22;25333;50.762;4.470;2023-04-03T03:39:40;1.90;99.90
38973;DHT22;25333;50.762;4.470;2023-04-03T03:42:06;1.90;99.90
38973;DHT22;25333;50.762;4.470;2023-04-03T03:44:32;1.90;99.90
38973;DHT22;25333;50.762;4.470;2023-04-03T03:46:57;1.80;99.90
38973;DHT22;25333;50.762;4.470;2023-04-03T03:49:23;1.70;99.90
38973;DHT22;25333;50.762;4.470;2023-04-03T03:51:48;1.50;99.90
38973;DHT22;25333;50.762;4.470;2023-04-03T03:54:15;1.50;99.90
38973;DHT22;25333;50.762;4.470;2023-04-03T03:56:40;1.60;99.90
38973;DHT22;25333;50.762;4.470;2023-04-03T03:59:06;1.60;99.90
38973;DHT22;25333;50.762;4.470;2023-04-03T04:01:32;1.70;99.90
38973;DHT22;25333;50.762;4.470;2023-04-03T04:03:57;1.60;99.90
38973;DHT22;25333;50.762;4.470;2023-04-03T04:06:23;1.70;99.90
38973;DHT22;25333;50.762;4.470;2023-04-03T04:08:49;1.70;99.90
38973;DHT22;25333;50.762;4.470;2023-04-03T04:11:14;1.70;99.90
38973;DHT22;25333;50.762;4.470;2023-04-03T04:13:40;1.70;99.90
38973;DHT22;25333;50.762;4.470;2023-04-03T04:16:07;1.60;99.90
38973;DHT22;25333;50.762;4.470;2023-04-03T04:18:33;1.50;99.90
38973;DHT22;25333;50.762;4.470;2023-04-03T04:20:58;1.40;99.90
38973;DHT22;25333;50.762;4.470;2023-04-03T04:23:24;1.40;99.90
38973;DHT22;25333;50.762;4.470;2023-04-03T04:25:50;1.30;99.90
38973;DHT22;25333;50.762;4.470;2023-04-03T04:28:16;1.30;99.90
38973;DHT22;25333;50.762;4.470;2023-04-03T04:30:41;1.30;99.90
38973;DHT22;25333;50.762;4.470;2023-04-03T04:33:07;1.30;99.90
38973;DHT22;25333;50.762;4.470;2023-04-03T04:35:33;1.40;99.90
38973;DHT22;25333;50.762;4.470;2023-04-03T04:37:59;1.40;99.90
38973;DHT22;25333;50.762;4.470;2023-04-03T04:40:25;1.50;99.90
38973;DHT22;25333;50.762;4.470;2023-04-03T04:42:51;1.50;99.90
38973;DHT22;25333;50.762;4.470;2023-04-03T04:45:17;1.40;99.90
38973;DHT22;25333;50.762;4.470;2023-04-03T04:47:43;1.30;99.90
38973;DHT22;25333;50.762;4.470;2023-04-03T04:50:09;1.30;99.90
38973;DHT22;25333;50.762;4.470;2023-04-03T04:52:37;1.30;99.90
38973;DHT22;25333;50.762;4.470;2023-04-03T04:55:04;1.30;99.90
38973;DHT22;25333;50.762;4.470;2023-04-03T04:57:31;1.30;99.90
38973;DHT22;25333;50.762;4.470;2023-04-03T05:00:03;1.30;99.90
38973;DHT22;25333;50.762;4.470;2023-04-03T05:02:42;1.20;99.90
38973;DHT22;25333;50.762;4.470;2023-04-03T05:05:09;1.20;99.90
38973;DHT22;25333;50.762;4.470;2023-04-03T05:07:50;1.20;99.90
38973;DHT22;25333;50.762;4.470;2023-04-03T05:10:18;1.20;99.90
38973;DHT22;25333;50.762;4.470;2023-04-03T05:12:45;1.20;99.90
38973;DHT22;25333;50.762;4.470;2023-04-03T05:15:10;1.30;99.90
38973;DHT22;25333;50.762;4.470;2023-04-03T05:17:37;1.30;99.90
38973;DHT22;25333;50.762;4.470;2023-04-03T05:20:03;1.20;99.90
38973;DHT22;25333;50.762;4.470;2023-04-03T05:22:30;1.20;99.90
38973;DHT22;25333;50.762;4.470;2023-04-03T05:24:57;1.20;99.90
38973;DHT22;25333;50.762;4.470;2023-04-03T05:27:23;1.20;99.90
38973;DHT22;25333;50.762;4.470;2023-04-03T05:29:49;1.20;99.90
38973;DHT22;25333;50.762;4.470;2023-04-03T05:32:15;1.30;99.90
38973;DHT22;25333;50.762;4.470;2023-04-03T05:34:41;1.20;99.90
38973;DHT22;25333;50.762;4.470;2023-04-03T05:37:12;1.20;99.90
38973;DHT22;25333;50.762;4.470;2023-04-03T05:39:39;1.20;99.90
38973;DHT22;25333;50.762;4.470;2023-04-03T05:42:07;1.20;99.90
38973;DHT22;25333;50.762;4.470;2023-04-03T05:44:33;1.10;99.90
38973;DHT22;25333;50.762;4.470;2023-04-03T05:46:59;1.20;99.90
38973;DHT22;25333;50.762;4.470;2023-04-03T05:49:25;1.10;99.90
38973;DHT22;25333;50.762;4.470;2023-04-03T05:51:50;1.10;99.90
38973;DHT22;25333;50.762;4.470;2023-04-03T05:54:25;1.20;99.90
38973;DHT22;25333;50.762;4.470;2023-04-03T05:56:51;1.20;99.90
38973;DHT22;25333;50.762;4.470;2023-04-03T05:59:18;1.20;99.90
38973;DHT22;25333;50.762;4.470;2023-04-03T06:01:44;1.20;99.90
38973;DHT22;25333;50.762;4.470;2023-04-03T06:04:10;1.20;99.90
38973;DHT22;25333;50.762;4.470;2023-04-03T06:06:55;1.20;99.90
38973;DHT22;25333;50.762;4.470;2023-04-03T06:09:24;1.30;99.90
38973;DHT22;25333;50.762;4.470;2023-04-03T06:11:50;1.30;99.90
38973;DHT22;25333;50.762;4.470;2023-04-03T06:14:15;1.30;99.90
38973;DHT22;25333;50.762;4.470;2023-04-03T06:16:41;1.30;99.90
38973;DHT22;25333;50.762;4.470;2023-04-03T06:19:08;1.40;99.90
38973;DHT22;25333;50.762;4.470;2023-04-03T06:21:34;1.50;99.90
38973;DHT22;25333;50.762;4.470;2023-04-03T06:24:01;1.60;99.90
38973;DHT22;25333;50.762;4.470;2023-04-03T06:26:27;1.70;99.90
38973;DHT22;25333;50.762;4.470;2023-04-03T06:28:53;1.90;99.90
38973;DHT22;25333;50.762;4.470;2023-04-03T06:31:19;2.00;99.90
38973;DHT22;25333;50.762;4.470;2023-04-03T06:33:45;2.20;99.90
38973;DHT22;25333;50.762;4.470;2023-04-03T06:36:11;2.30;99.90
38973;DHT22;25333;50.762;4.470;2023-04-03T06:38:37;2.40;99.90
38973;DHT22;25333;50.762;4.470;2023-04-03T06:41:03;2.50;99.90
38973;DHT22;25333;50.762;4.470;2023-04-03T06:43:29;2.60;99.90
38973;DHT22;25333;50.762;4.470;2023-04-03T06:45:56;2.70;99.90
38973;DHT22;25333;50.762;4.470;2023-04-03T06:48:22;2.80;99.90
38973;DHT22;25333;50.762;4.470;2023-04-03T06:50:48;3.00;99.90
38973;DHT22;25333;50.762;4.470;2023-04-03T06:53:14;3.10;99.90
38973;DHT22;25333;50.762;4.470;2023-04-03T06:55:40;3.20;99.90
38973;DHT22;25333;50.762;4.470;2023-04-03T06:58:06;3.30;99.90
38973;DHT22;25333;50.762;4.470;2023-04-03T07:00:32;3.40;99.90
38973;DHT22;25333;50.762;4.470;2023-04-03T07:02:58;3.50;99.90
38973;DHT22;25333;50.762;4.470;2023-04-03T07:05:24;3.70;99.90
38973;DHT22;25333;50.762;4.470;2023-04-03T07:07:50;4.00;99.90
38973;DHT22;25333;50.762;4.470;2023-04-03T07:10:17;4.00;99.90
38973;DHT22;25333;50.762;4.470;2023-04-03T07:12:42;4.00;99.90
38973;DHT22;25333;50.762;4.470;2023-04-03T07:15:09;4.20;99.90
38973;DHT22;25333;50.762;4.470;2023-04-03T07:17:35;4.20;99.90
38973;DHT22;25333;50.762;4.470;2023-04-03T07:20:03;4.20;99.90
38973;DHT22;25333;50.762;4.470;2023-04-03T07:22:32;4.40;99.90
38973;DHT22;25333;50.762;4.470;2023-04-03T07:24:57;4.50;99.90
38973;DHT22;25333;50.762;4.470;2023-04-03T07:27:30;4.60;99.90
38973;DHT22;25333;50.762;4.470;2023-04-03T07:29:58;4.90;99.90
38973;DHT22;25333;50.762;4.470;2023-04-03T07:32:24;5.00;99.90
38973;DHT22;25333;50.762;4.470;2023-04-03T07:34:50;5.00;99.90
38973;DHT22;25333;50.762;4.470;2023-04-03T07:37:16;5.10;99.90
38973;DHT22;25333;50.762;4.470;2023-04-03T07:39:46;5.20;99.90
38973;DHT22;25333;50.762;4.470;2023-04-03T07:42:12;5.40;99.90
38973;DHT22;25333;50.762;4.470;2023-04-03T07:44:40;5.60;99.90
38973;DHT22;25333;50.762;4.470;2023-04-03T07:47:06;5.60;99.90
38973;DHT22;25333;50.762;4.470;2023-04-03T07:49:32;5.60;99.90
38973;DHT22;25333;50.762;4.470;2023-04-03T07:51:58;5.70;99.90
38973;DHT22;25333;50.762;4.470;2023-04-03T07:54:24;5.60;99.90
38973;DHT22;25333;50.762;4.470;2023-04-03T07:56:49;5.70;99.90
38973;DHT22;25333;50.762;4.470;2023-04-03T07:59:15;5.90;99.90
38973;DHT22;25333;50.762;4.470;2023-04-03T08:01:40;6.00;99.90
38973;DHT22;25333;50.762;4.470;2023-04-03T08:04:06;6.20;99.90
38973;DHT22;25333;50.762;4.470;2023-04-03T08:06:32;6.50;99.90
38973;DHT22;25333;50.762;4.470;2023-04-03T08:09:03;6.60;99.90
38973;DHT22;25333;50.762;4.470;2023-04-03T08:11:29;6.80;99.90
38973;DHT22;25333;50.762;4.470;2023-04-03T08:13:56;7.00;99.90
38973;DHT22;25333;50.762;4.470;2023-04-03T08:16:23;7.10;99.90
38973;DHT22;25333;50.762;4.470;2023-04-03T08:18:51;7.20;99.90
38973;DHT22;25333;50.762;4.470;2023-04-03T08:21:16;7.10;99.90
38973;DHT22;25333;50.762;4.470;2023-04-03T08:23:42;7.20;99.90
38973;DHT22;25333;50.762;4.470;2023-04-03T08:26:13;7.30;99.90
38973;DHT22;25333;50.762;4.470;2023-04-03T08:28:40;7.50;99.90
38973;DHT22;25333;50.762;4.470;2023-04-03T08:31:11;7.50;99.90
38973;DHT22;25333;50.762;4.470;2023-04-03T08:33:39;7.50;99.90
38973;DHT22;25333;50.762;4.470;2023-04-03T08:36:07;7.50;99.90
38973;DHT22;25333;50.762;4.470;2023-04-03T08:38:34;7.60;99.90
38973;DHT22;25333;50.762;4.470;2023-04-03T08:41:14;7.60;99.90
38973;DHT22;25333;50.762;4.470;2023-04-03T08:43:51;7.60;99.90
38973;DHT22;25333;50.762;4.470;2023-04-03T08:46:22;7.40;99.90
38973;DHT22;25333;50.762;4.470;2023-04-03T08:48:50;7.70;99.90
38973;DHT22;25333;50.762;4.470;2023-04-03T08:51:19;8.00;99.90
38973;DHT22;25333;50.762;4.470;2023-04-03T08:56:20;8.00;98.80
38973;DHT22;25333;50.762;4.470;2023-04-03T08:58:51;8.00;98.60
38973;DHT22;25333;50.762;4.470;2023-04-03T09:01:27;8.00;99.90
38973;DHT22;25333;50.762;4.470;2023-04-03T09:03:55;8.30;99.30
38973;DHT22;25333;50.762;4.470;2023-04-03T09:06:27;8.30;98.70
38973;DHT22;25333;50.762;4.470;2023-04-03T09:11:57;8.40;98.40
38973;DHT22;25333;50.762;4.470;2023-04-03T09:17:14;8.40;98.30
38973;DHT22;25333;50.762;4.470;2023-04-03T09:19:57;8.60;99.50
38973;DHT22;25333;50.762;4.470;2023-04-03T09:22:25;8.70;98.20
38973;DHT22;25333;50.762;4.470;2023-04-03T09:25:23;8.80;95.90
38973;DHT22;25333;50.762;4.470;2023-04-03T09:27:49;8.60;95.20
38973;DHT22;25333;50.762;4.470;2023-04-03T09:30:18;8.60;97.20
38973;DHT22;25333;50.762;4.470;2023-04-03T09:32:46;8.60;96.40
38973;DHT22;25333;50.762;4.470;2023-04-03T09:35:31;8.90;96.10
38973;DHT22;25333;50.762;4.470;2023-04-03T09:42:58;9.30;95.00
38973;DHT22;25333;50.762;4.470;2023-04-03T09:45:34;9.30;95.00
38973;DHT22;25333;50.762;4.470;2023-04-03T09:50:30;9.50;95.60
38973;DHT22;25333;50.762;4.470;2023-04-03T09:52:56;9.60;94.60
38973;DHT22;25333;50.762;4.470;2023-04-03T09:55:24;9.70;92.60
38973;DHT22;25333;50.762;4.470;2023-04-03T09:58:00;9.70;94.10
38973;DHT22;25333;50.762;4.470;2023-04-03T10:00:30;9.70;93.40
38973;DHT22;25333;50.762;4.470;2023-04-03T10:02:58;9.50;93.90
38973;DHT22;25333;50.762;4.470;2023-04-03T10:05:31;9.50;93.60
38973;DHT22;25333;50.762;4.470;2023-04-03T10:10:48;9.90;94.50
38973;DHT22;25333;50.762;4.470;2023-04-03T10:13:32;10.40;96.30
38973;DHT22;25333;50.762;4.470;2023-04-03T10:16:21;10.70;94.60
38973;DHT22;25333;50.762;4.470;2023-04-03T10:21:42;11.00;91.30
38973;DHT22;25333;50.762;4.470;2023-04-03T10:24:18;11.00;94.00
38973;DHT22;25333;50.762;4.470;2023-04-03T10:27:18;11.10;92.20
38973;DHT22;25333;50.762;4.470;2023-04-03T10:30:09;11.00;92.20
38973;DHT22;25333;50.762;4.470;2023-04-03T10:32:53;10.80;93.40
38973;DHT22;25333;50.762;4.470;2023-04-03T10:38:23;11.00;91.80
38973;DHT22;25333;50.762;4.470;2023-04-03T10:40:55;11.20;92.40
38973;DHT22;25333;50.762;4.470;2023-04-03T10:48:48;11.40;92.00
38973;DHT22;25333;50.762;4.470;2023-04-03T10:51:42;11.10;93.40
38973;DHT22;25333;50.762;4.470;2023-04-03T10:54:17;11.00;94.50
38973;DHT22;25333;50.762;4.470;2023-04-03T10:56:55;11.40;93.20
38973;DHT22;25333;50.762;4.470;2023-04-03T11:02:05;11.70;92.60
38973;DHT22;25333;50.762;4.470;2023-04-03T11:04:36;11.80;90.40
38973;DHT22;25333;50.762;4.470;2023-04-03T11:07:18;11.60;87.80
38973;DHT22;25333;50.762;4.470;2023-04-03T11:09:50;11.60;87.60
38973;DHT22;25333;50.762;4.470;2023-04-03T11:12:23;11.80;90.10
38973;DHT22;25333;50.762;4.470;2023-04-03T11:14:51;11.40;86.70
38973;DHT22;25333;50.762;4.470;2023-04-03T11:20:19;11.30;83.30
38973;DHT22;25333;50.762;4.470;2023-04-03T11:22:53;11.30;89.10
38973;DHT22;25333;50.762;4.470;2023-04-03T11:25:25;11.60;86.30
38973;DHT22;25333;50.762;4.470;2023-04-03T11:27:56;11.60;85.10
38973;DHT22;25333;50.762;4.470;2023-04-03T11:39:19;11.10;89.40
38973;DHT22;25333;50.762;4.470;2023-04-03T11:41:47;10.90;91.00
38973;DHT22;25333;50.762;4.470;2023-04-03T11:44:36;10.80;89.50
38973;DHT22;25333;50.762;4.470;2023-04-03T11:47:03;11.00;86.10
38973;DHT22;25333;50.762;4.470;2023-04-03T12:05:56;11.00;83.90
38973;DHT22;25333;50.762;4.470;2023-04-03T12:08:55;11.20;82.50
38973;DHT22;25333;50.762;4.470;2023-04-03T12:11:30;11.10;80.60
38973;DHT22;25333;50.762;4.470;2023-04-03T12:26:48;10.70;81.30
38973;DHT22;25333;50.762;4.470;2023-04-03T12:38:16;10.50;80.60
38973;DHT22;25333;50.762;4.470;2023-04-03T12:43:28;10.20;80.80
38973;DHT22;25333;50.762;4.470;2023-04-03T12:48:46;10.00;80.20
38973;DHT22;25333;50.762;4.470;2023-04-03T12:51:19;10.10;81.20
38973;DHT22;25333;50.762;4.470;2023-04-03T12:53:48;10.30;81.10
38973;DHT22;25333;50.762;4.470;2023-04-03T12:56:33;10.50;78.10
38973;DHT22;25333;50.762;4.470;2023-04-03T12:59:21;10.50;76.20
38973;DHT22;25333;50.762;4.470;2023-04-03T13:02:00;10.30;77.00
38973;DHT22;25333;50.762;4.470;2023-04-03T13:04:31;10.20;82.80
38973;DHT22;25333;50.762;4.470;2023-04-03T13:06:57;10.20;76.90
38973;DHT22;25333;50.762;4.470;2023-04-03T13:09:25;10.00;79.90
38973;DHT22;25333;50.762;4.470;2023-04-03T13:12:02;10.00;78.70
38973;DHT22;25333;50.762;4.470;2023-04-03T13:14:30;10.00;78.30
38973;DHT22;25333;50.762;4.470;2023-04-03T13:19:24;10.00;75.40
38973;DHT22;25333;50.762;4.470;2023-04-03T13:21:59;10.10;75.50
38973;DHT22;25333;50.762;4.470;2023-04-03T13:24:27;10.00;75.80
38973;DHT22;25333;50.762;4.470;2023-04-03T13:26:54;9.90;77.80
38973;DHT22;25333;50.762;4.470;2023-04-03T13:29:31;9.90;76.40
38973;DHT22;25333;50.762;4.470;2023-04-03T13:31:58;10.00;76.00
38973;DHT22;25333;50.762;4.470;2023-04-03T13:34:28;10.00;75.20
38973;DHT22;25333;50.762;4.470;2023-04-03T13:36:59;10.00;76.30
38973;DHT22;25333;50.762;4.470;2023-04-03T13:39:28;10.00;74.20
38973;DHT22;25333;50.762;4.470;2023-04-03T13:41:57;10.00;74.70
38973;DHT22;25333;50.762;4.470;2023-04-03T13:47:21;9.80;73.40
38973;DHT22;25333;50.762;4.470;2023-04-03T13:55:29;9.80;74.30
38973;DHT22;25333;50.762;4.470;2023-04-03T14:00:37;9.90;76.30
38973;DHT22;25333;50.762;4.470;2023-04-03T14:03:12;10.00;74.70
38973;DHT22;25333;50.762;4.470;2023-04-03T14:05:38;10.00;74.40
38973;DHT22;25333;50.762;4.470;2023-04-03T14:08:03;10.00;75.70
38973;DHT22;25333;50.762;4.470;2023-04-03T14:10:30;9.90;77.20
38973;DHT22;25333;50.762;4.470;2023-04-03T14:12:56;9.90;77.50
38973;DHT22;25333;50.762;4.470;2023-04-03T14:15:29;9.90;77.90
38973;DHT22;25333;50.762;4.470;2023-04-03T14:17:56;10.00;75.50
38973;DHT22;25333;50.762;4.470;2023-04-03T14:20:24;9.90;73.60
38973;DHT22;25333;50.762;4.470;2023-04-03T14:22:51;9.90;73.30
38973;DHT22;25333;50.762;4.470;2023-04-03T14:25:19;9.90;73.30
38973;DHT22;25333;50.762;4.470;2023-04-03T14:27:47;9.90;74.50
38973;DHT22;25333;50.762;4.470;2023-04-03T14:30:18;9.80;75.10
38973;DHT22;25333;50.762;4.470;2023-04-03T14:32:44;9.70;74.60
38973;DHT22;25333;50.762;4.470;2023-04-03T14:35:10;9.70;75.60
38973;DHT22;25333;50.762;4.470;2023-04-03T14:37:36;9.60;74.20
38973;DHT22;25333;50.762;4.470;2023-04-03T14:40:04;9.60;75.20
38973;DHT22;25333;50.762;4.470;2023-04-03T14:42:35;9.70;75.20
38973;DHT22;25333;50.762;4.470;2023-04-03T14:45:06;9.80;74.50
38973;DHT22;25333;50.762;4.470;2023-04-03T14:47:32;9.90;75.80
38973;DHT22;25333;50.762;4.470;2023-04-03T14:50:02;9.80;73.90
38973;DHT22;25333;50.762;4.470;2023-04-03T14:52:34;9.90;73.50
38973;DHT22;25333;50.762;4.470;2023-04-03T14:55:01;9.90;74.80
38973;DHT22;25333;50.762;4.470;2023-04-03T14:57:29;9.90;74.10
38973;DHT22;25333;50.762;4.470;2023-04-03T14:59:55;9.90;74.50
38973;DHT22;25333;50.762;4.470;2023-04-03T15:02:37;9.90;75.20
38973;DHT22;25333;50.762;4.470;2023-04-03T15:05:06;10.00;75.30
38973;DHT22;25333;50.762;4.470;2023-04-03T15:07:53;10.00;77.40
38973;DHT22;25333;50.762;4.470;2023-04-03T15:10:22;10.10;77.30
38973;DHT22;25333;50.762;4.470;2023-04-03T15:12:49;10.10;76.60
38973;DHT22;25333;50.762;4.470;2023-04-03T15:15:17;10.20;77.90
38973;DHT22;25333;50.762;4.470;2023-04-03T15:17:43;10.10;77.10
38973;DHT22;25333;50.762;4.470;2023-04-03T15:20:15;10.10;75.80
38973;DHT22;25333;50.762;4.470;2023-04-03T15:22:41;10.00;74.70
38973;DHT22;25333;50.762;4.470;2023-04-03T15:25:07;9.90;76.50
38973;DHT22;25333;50.762;4.470;2023-04-03T15:27:32;9.90;76.10
38973;DHT22;25333;50.762;4.470;2023-04-03T15:29:58;9.90;77.60
38973;DHT22;25333;50.762;4.470;2023-04-03T15:32:24;9.80;75.50
38973;DHT22;25333;50.762;4.470;2023-04-03T15:34:49;9.70;75.50
38973;DHT22;25333;50.762;4.470;2023-04-03T15:37:15;9.80;78.40
38973;DHT22;25333;50.762;4.470;2023-04-03T15:39:41;9.80;76.10
38973;DHT22;25333;50.762;4.470;2023-04-03T15:42:06;9.90;75.10
38973;DHT22;25333;50.762;4.470;2023-04-03T15:44:33;9.90;74.20
38973;DHT22;25333;50.762;4.470;2023-04-03T15:46:59;9.90;74.00
38973;DHT22;25333;50.762;4.470;2023-04-03T15:49:26;9.90;74.30
38973;DHT22;25333;50.762;4.470;2023-04-03T15:51:52;9.80;74.70
38973;DHT22;25333;50.762;4.470;2023-04-03T15:54:17;9.80;75.20
38973;DHT22;25333;50.762;4.470;2023-04-03T15:56:45;9.70;76.30
38973;DHT22;25333;50.762;4.470;2023-04-03T15:59:11;9.70;75.40
38973;DHT22;25333;50.762;4.470;2023-04-03T16:01:38;9.60;77.30
38973;DHT22;25333;50.762;4.470;2023-04-03T16:04:05;9.60;77.10
38973;DHT22;25333;50.762;4.470;2023-04-03T16:06:32;9.50;78.00
38973;DHT22;25333;50.762;4.470;2023-04-03T16:08:59;9.50;77.20
38973;DHT22;25333;50.762;4.470;2023-04-03T16:11:26;9.50;79.10
38973;DHT22;25333;50.762;4.470;2023-04-03T16:13:53;9.50;79.10
38973;DHT22;25333;50.762;4.470;2023-04-03T16:16:19;9.50;78.50
38973;DHT22;25333;50.762;4.470;2023-04-03T16:18:45;9.50;78.70
38973;DHT22;25333;50.762;4.470;2023-04-03T16:21:13;9.60;78.00
38973;DHT22;25333;50.762;4.470;2023-04-03T16:23:40;9.70;77.90
38973;DHT22;25333;50.762;4.470;2023-04-03T16:26:06;9.70;78.70
38973;DHT22;25333;50.762;4.470;2023-04-03T16:28:32;9.70;78.20
38973;DHT22;25333;50.762;4.470;2023-04-03T16:30:58;9.70;76.70
38973;DHT22;25333;50.762;4.470;2023-04-03T16:33:25;9.60;77.10
38973;DHT22;25333;50.762;4.470;2023-04-03T16:35:50;9.40;77.30
38973;DHT22;25333;50.762;4.470;2023-04-03T16:38:17;9.40;77.30
38973;DHT22;25333;50.762;4.470;2023-04-03T16:40:44;9.50;78.20
38973;DHT22;25333;50.762;4.470;2023-04-03T16:43:10;9.50;78.60
38973;DHT22;25333;50.762;4.470;2023-04-03T16:45:36;9.30;80.20
38973;DHT22;25333;50.762;4.470;2023-04-03T16:48:02;9.40;80.00
38973;DHT22;25333;50.762;4.470;2023-04-03T16:50:27;9.40;79.90
38973;DHT22;25333;50.762;4.470;2023-04-03T16:52:53;9.30;80.00
38973;DHT22;25333;50.762;4.470;2023-04-03T16:55:18;9.20;80.10
38973;DHT22;25333;50.762;4.470;2023-04-03T16:57:46;9.20;81.00
38973;DHT22;25333;50.762;4.470;2023-04-03T17:00:12;9.10;80.50
38973;DHT22;25333;50.762;4.470;2023-04-03T17:02:39;9.10;80.80
38973;DHT22;25333;50.762;4.470;2023-04-03T17:05:05;9.10;81.10
38973;DHT22;25333;50.762;4.470;2023-04-03T17:07:31;9.00;81.80
38973;DHT22;25333;50.762;4.470;2023-04-03T17:09:57;9.00;81.20
38973;DHT22;25333;50.762;4.470;2023-04-03T17:12:23;9.00;82.20
38973;DHT22;25333;50.762;4.470;2023-04-03T17:14:49;9.00;81.90
38973;DHT22;25333;50.762;4.470;2023-04-03T17:17:22;8.90;82.10
38973;DHT22;25333;50.762;4.470;2023-04-03T17:19:48;8.80;81.90
38973;DHT22;25333;50.762;4.470;2023-04-03T17:22:14;8.90;83.30
38973;DHT22;25333;50.762;4.470;2023-04-03T17:24:41;8.80;84.30
38973;DHT22;25333;50.762;4.470;2023-04-03T17:27:07;8.70;80.80
38973;DHT22;25333;50.762;4.470;2023-04-03T17:29:33;8.70;82.20
38973;DHT22;25333;50.762;4.470;2023-04-03T17:31:58;8.60;83.10
38973;DHT22;25333;50.762;4.470;2023-04-03T17:34:24;8.60;83.10
38973;DHT22;25333;50.762;4.470;2023-04-03T17:36:49;8.50;82.80
38973;DHT22;25333;50.762;4.470;2023-04-03T17:39:15;8.50;82.90
38973;DHT22;25333;50.762;4.470;2023-04-03T17:41:41;8.50;82.90